Time;durP1;ratioP1;P1;durP2;ratioP2;P2;SDS_P1;SDS_P2;PMS_P1;PMS_P2;Temp;Humidity;BMP_temperature;BMP_pressure;BME280_temperature;BME280_humidity;BME280_pressure;Samples;Min_cycle;Max_cycle;Signal;HPM_P1;HPM_P2
2022/12/27 00:00:12;;;;;;;1.97;0.70;;;6.30;99.90;;;;;;5114208;28;20327;-77
2022/12/27 00:02:41;;;;;;;0.93;0.90;;;6.30;99.90;;;;;;5114751;28;20290;-76
2022/12/27 00:05:11;;;;;;;0.70;0.70;;;6.30;99.90;;;;;;5115260;28;20206;-77
2022/12/27 00:07:41;;;;;;;1.23;0.80;;;6.30;99.90;;;;;;5115649;28;20222;-79
2022/12/27 00:10:11;;;;;;;1.30;1.20;;;6.30;99.90;;;;;;5100546;28;20210;-77
2022/12/27 00:12:39;;;;;;;1.40;1.10;;;6.20;99.90;;;;;;5094264;28;20634;-77
2022/12/27 00:15:08;;;;;;;1.03;0.93;;;6.20;99.90;;;;;;5093801;28;20213;-76
2022/12/27 00:17:36;;;;;;;1.10;1.00;;;6.20;99.90;;;;;;5093945;28;20719;-75
2022/12/27 00:20:06;;;;;;;0.77;0.77;;;6.20;99.90;;;;;;5093892;28;20260;-77
2022/12/27 00:22:40;;;;;;;1.17;0.83;;;6.10;99.90;;;;;;5094048;28;20198;-77
2022/12/27 00:25:10;;;;;;;0.97;0.60;;;6.20;99.90;;;;;;5094108;28;20294;-77
2022/12/27 00:27:38;;;;;;;1.57;1.00;;;6.00;99.90;;;;;;5094296;28;20656;-78
2022/12/27 00:30:08;;;;;;;2.37;1.00;;;6.00;99.90;;;;;;5094298;28;20234;-76
2022/12/27 00:32:36;;;;;;;0.80;0.80;;;6.00;99.90;;;;;;5093440;28;20226;-78
2022/12/27 00:35:05;;;;;;;1.30;0.80;;;5.90;99.90;;;;;;5093924;28;20203;-77
2022/12/27 00:37:34;;;;;;;1.33;0.97;;;5.90;99.90;;;;;;5094377;28;20233;-74
2022/12/27 00:40:04;;;;;;;1.53;0.90;;;5.90;99.90;;;;;;5094048;28;20226;-77
2022/12/27 00:42:33;;;;;;;4.37;1.33;;;5.90;99.90;;;;;;5093560;28;20585;-76
2022/12/27 00:45:01;;;;;;;2.37;1.20;;;5.80;99.90;;;;;;5093130;28;20207;-77
2022/12/27 00:47:29;;;;;;;1.00;1.00;;;5.80;99.90;;;;;;5093752;28;20599;-75
2022/12/27 00:49:57;;;;;;;1.97;1.00;;;5.70;99.90;;;;;;5093853;28;20203;-78
2022/12/27 00:52:25;;;;;;;2.93;1.13;;;5.80;99.90;;;;;;5093375;28;20203;-78
2022/12/27 00:54:53;;;;;;;4.63;1.10;;;5.70;99.90;;;;;;5093412;28;20767;-77
2022/12/27 00:57:23;;;;;;;3.93;1.20;;;5.70;99.90;;;;;;5101416;28;20277;-77
2022/12/27 00:59:51;;;;;;;1.60;0.97;;;5.70;99.90;;;;;;5113732;28;20298;-76
2022/12/27 01:02:21;;;;;;;1.10;1.00;;;5.70;99.90;;;;;;5114014;28;20213;-77
2022/12/27 01:04:52;;;;;;;1.87;1.20;;;5.60;99.90;;;;;;5096099;28;20235;-76
2022/12/27 01:07:21;;;;;;;1.97;0.90;;;5.60;99.90;;;;;;5093350;28;20229;-77
2022/12/27 01:09:49;;;;;;;2.43;1.10;;;5.60;99.90;;;;;;5093636;28;20213;-76
2022/12/27 01:12:18;;;;;;;1.97;0.90;;;5.50;99.90;;;;;;5093299;28;20241;-76
2022/12/27 01:14:48;;;;;;;2.27;1.10;;;5.40;99.90;;;;;;5093272;28;20293;-77
2022/12/27 01:17:16;;;;;;;1.90;1.00;;;5.30;99.90;;;;;;5092829;28;20231;-76
2022/12/27 01:19:45;;;;;;;1.90;1.20;;;5.30;99.90;;;;;;5093418;28;20553;-76
2022/12/27 01:22:13;;;;;;;1.80;0.93;;;5.30;99.90;;;;;;5107170;28;20206;-76
2022/12/27 01:24:42;;;;;;;3.57;1.10;;;5.30;99.90;;;;;;5113325;28;20222;-76
2022/12/27 01:27:10;;;;;;;1.60;1.00;;;5.20;99.90;;;;;;5113098;28;20205;-75
2022/12/27 01:29:38;;;;;;;2.00;1.00;;;5.20;99.90;;;;;;5103255;28;20644;-76
2022/12/27 01:32:09;;;;;;;2.27;1.17;;;5.10;99.90;;;;;;5092684;28;20723;-77
2022/12/27 01:34:37;;;;;;;1.73;0.80;;;5.00;99.90;;;;;;5093181;28;20207;-76
2022/12/27 01:37:05;;;;;;;1.60;1.10;;;5.10;99.90;;;;;;5092802;28;20227;-77
2022/12/27 01:39:33;;;;;;;3.57;1.43;;;5.10;99.90;;;;;;5092477;28;20298;-77
2022/12/27 01:44:56;;;;;;;1.50;0.90;;;4.90;99.90;;;;;;5092642;28;20199;-76
2022/12/27 01:47:33;;;;;;;1.27;1.00;;;4.90;99.90;;;;;;5092626;28;20249;-76
2022/12/27 01:50:09;;;;;;;3.27;1.20;;;4.90;99.90;;;;;;5092718;28;20684;-76
2022/12/27 01:52:44;;;;;;;1.10;0.90;;;4.80;99.90;;;;;;5097256;28;20293;-76
2022/12/27 01:55:21;;;;;;;3.90;1.20;;;4.80;99.90;;;;;;5112795;28;20213;-76
2022/12/27 01:57:52;;;;;;;1.40;0.80;;;4.90;99.90;;;;;;5112771;28;20634;-77
2022/12/27 02:00:24;;;;;;;4.13;1.10;;;4.80;99.90;;;;;;5111302;28;20228;-77
2022/12/27 02:02:53;;;;;;;1.60;1.03;;;4.80;99.90;;;;;;5112600;28;20273;-76
2022/12/27 02:05:24;;;;;;;2.47;1.23;;;4.80;99.90;;;;;;5112550;28;20566;-75
2022/12/27 02:08:19;;;;;;;1.23;1.10;;;4.80;99.90;;;;;;5102167;28;20340;-76
2022/12/27 02:10:49;;;;;;;2.60;1.10;;;4.80;99.90;;;;;;5064668;28;20293;-76
2022/12/27 02:13:18;;;;;;;2.20;1.10;;;4.90;99.90;;;;;;5092275;28;20295;-75
2022/12/27 02:15:47;;;;;;;3.23;1.00;;;4.80;99.90;;;;;;5092570;28;20217;-76
2022/12/27 02:18:16;;;;;;;1.83;1.10;;;4.80;99.90;;;;;;5092200;28;20223;-77
2022/12/27 02:21:13;;;;;;;3.80;1.20;;;4.80;99.90;;;;;;5092409;28;20297;-75
2022/12/27 02:24:10;;;;;;;2.30;1.10;;;4.70;99.90;;;;;;5092439;28;20203;-79
2022/12/27 02:26:46;;;;;;;1.83;1.10;;;4.80;99.90;;;;;;5077301;28;20207;-79
2022/12/27 02:29:35;;;;;;;2.97;1.23;;;4.80;99.90;;;;;;5103066;28;20222;-78
2022/12/27 02:32:09;;;;;;;1.67;1.30;;;4.80;99.90;;;;;;5107869;28;20254;-77
2022/12/27 02:34:48;;;;;;;1.60;1.20;;;4.80;99.90;;;;;;5102134;28;20191;-77
2022/12/27 02:37:20;;;;;;;3.43;1.20;;;4.80;99.90;;;;;;5092348;28;20262;-77
2022/12/27 02:39:51;;;;;;;2.17;1.03;;;4.90;99.90;;;;;;5092414;28;20227;-76
2022/12/27 02:54:08;;;;;;;3.87;1.30;;;4.60;99.90;;;;;;5095132;28;20198;-77
2022/12/27 03:05:41;;;;;;;3.33;1.40;;;4.50;99.90;;;;;;5095885;28;20195;-76
2022/12/27 03:08:16;;;;;;;2.40;1.40;;;4.60;99.90;;;;;;5095251;28;20241;-77
2022/12/27 03:16:36;;;;;;;1.30;1.20;;;4.60;99.90;;;;;;5095298;28;20255;-76
2022/12/27 03:19:13;;;;;;;2.80;1.50;;;4.70;99.90;;;;;;5095729;28;20726;-76
2022/12/27 03:27:31;;;;;;;2.50;1.40;;;4.80;99.90;;;;;;5101525;28;20213;-76
2022/12/27 03:33:15;;;;;;;1.83;1.30;;;4.80;99.90;;;;;;5105022;28;20231;-76
2022/12/27 03:38:42;;;;;;;4.07;1.50;;;4.70;99.90;;;;;;5094076;28;20692;-74
2022/12/27 03:44:03;;;;;;;2.27;1.30;;;4.60;99.90;;;;;;5096957;28;20203;-78
2022/12/27 03:46:33;;;;;;;1.80;1.50;;;4.50;99.90;;;;;;5136023;28;20284;-77
2022/12/27 03:49:16;;;;;;;3.10;1.50;;;4.50;99.90;;;;;;5138606;28;20217;-78
2022/12/27 03:51:49;;;;;;;1.30;1.20;;;4.40;99.90;;;;;;5122577;28;20236;-79
2022/12/27 03:54:25;;;;;;;3.57;1.50;;;4.40;99.90;;;;;;5094436;28;20215;-79
2022/12/27 03:56:55;;;;;;;2.07;1.40;;;4.30;99.90;;;;;;5095823;28;20221;-77
2022/12/27 03:59:25;;;;;;;2.13;1.50;;;4.30;99.90;;;;;;5094956;28;20235;-77
2022/12/27 04:01:53;;;;;;;3.67;1.30;;;4.30;99.90;;;;;;5093957;28;20233;-76
2022/12/27 04:04:22;;;;;;;2.60;1.30;;;4.20;99.90;;;;;;5094802;28;20256;-77
2022/12/27 04:06:51;;;;;;;5.03;1.70;;;4.20;99.90;;;;;;5094449;28;20222;-78
2022/12/27 04:36:58;;;;;;;4.07;1.40;;;3.50;99.90;;;;;;5112946;28;20327;-75
2022/12/27 04:39:28;;;;;;;5.93;2.00;;;3.40;99.90;;;;;;5114114;28;20232;-76
2022/12/27 04:55:48;;;;;;;3.57;1.50;;;2.80;99.90;;;;;;5100429;28;20203;-75
2022/12/27 04:58:17;;;;;;;3.37;1.43;;;2.70;99.90;;;;;;5093414;28;20421;-75
2022/12/27 05:03:36;;;;;;;1.90;1.40;;;2.60;99.90;;;;;;5092988;28;20199;-75
2022/12/27 05:06:05;;;;;;;2.27;1.50;;;2.50;99.90;;;;;;5093655;28;20222;-76
2022/12/27 05:14:10;;;;;;;3.00;1.50;;;2.40;99.90;;;;;;5093326;28;20187;-77
2022/12/27 05:16:41;;;;;;;3.30;1.80;;;2.30;99.90;;;;;;5093037;28;20207;-74
2022/12/27 05:19:11;;;;;;;3.37;1.60;;;2.30;99.90;;;;;;5093268;28;20591;-75
2022/12/27 05:25:33;;;;;;;2.93;1.60;;;2.20;99.90;;;;;;5093223;28;20531;-76
2022/12/27 05:27:18;;;;;;;1.90;1.50;;;2.10;99.90;;;;;;5093309;28;20218;-75
2022/12/27 05:29:47;;;;;;;2.43;1.70;;;2.10;99.90;;;;;;5093128;28;20199;-77
2022/12/27 05:32:15;;;;;;;2.30;1.40;;;1.90;99.90;;;;;;5092966;28;20264;-76
2022/12/27 05:34:43;;;;;;;3.00;1.77;;;1.90;99.90;;;;;;5092634;28;20253;-77
2022/12/27 05:37:11;;;;;;;3.23;2.00;;;1.90;99.90;;;;;;5093200;28;20205;-77
2022/12/27 05:39:40;;;;;;;1.77;1.60;;;1.90;99.90;;;;;;5093220;28;20230;-75
2022/12/27 05:42:08;;;;;;;7.27;2.07;;;1.80;99.90;;;;;;5092647;28;20206;-76
2022/12/27 05:44:37;;;;;;;3.23;1.80;;;1.80;99.90;;;;;;5092916;28;20213;-77
2022/12/27 05:47:05;;;;;;;3.33;1.80;;;1.70;99.90;;;;;;5093229;28;20213;-75
2022/12/27 05:49:33;;;;;;;4.33;1.97;;;1.70;99.90;;;;;;5094752;28;20203;-77
2022/12/27 05:52:02;;;;;;;2.43;1.63;;;1.60;99.90;;;;;;5114149;28;20300;-76
2022/12/27 05:54:30;;;;;;;4.50;1.80;;;1.60;99.90;;;;;;5101312;28;20215;-74
2022/12/27 05:56:58;;;;;;;3.27;1.80;;;1.60;99.90;;;;;;5095087;28;20675;-76
2022/12/27 05:59:26;;;;;;;2.27;1.50;;;1.50;99.90;;;;;;5103192;28;21004;-76
2022/12/27 06:01:56;;;;;;;7.03;3.90;;;1.50;99.90;;;;;;5115037;28;20222;-77
2022/12/27 06:04:24;;;;;;;3.37;2.00;;;1.40;99.90;;;;;;5114196;28;20206;-75
2022/12/27 06:06:52;;;;;;;3.40;2.00;;;1.40;99.90;;;;;;5114785;28;20222;-77
2022/12/27 06:09:21;;;;;;;3.17;1.87;;;1.40;99.90;;;;;;5102540;28;20313;-75
2022/12/27 06:11:49;;;;;;;3.53;2.07;;;1.40;99.90;;;;;;5093125;28;20671;-77
2022/12/27 06:14:17;;;;;;;5.37;1.77;;;1.40;99.90;;;;;;5093385;28;20327;-76
2022/12/27 06:16:45;;;;;;;3.47;1.97;;;1.40;99.90;;;;;;5099885;28;20218;-76
2022/12/27 06:19:16;;;;;;;3.67;2.00;;;1.40;99.90;;;;;;5114756;28;20230;-77
2022/12/27 06:21:44;;;;;;;4.17;2.43;;;1.40;99.90;;;;;;5114819;28;20262;-76
2022/12/27 06:24:13;;;;;;;1.93;1.63;;;1.40;99.90;;;;;;5117180;28;20241;-75
2022/12/27 06:26:41;;;;;;;2.23;1.80;;;1.40;99.90;;;;;;5114410;28;20297;-76
2022/12/27 06:29:12;;;;;;;3.80;1.83;;;1.40;99.90;;;;;;5117808;28;20633;-75
2022/12/27 06:31:40;;;;;;;5.27;2.00;;;1.30;99.90;;;;;;5115608;28;20231;-76
2022/12/27 06:34:10;;;;;;;3.33;2.03;;;1.30;99.90;;;;;;5122574;28;20210;-77
2022/12/27 06:36:40;;;;;;;3.03;1.90;;;1.20;99.90;;;;;;5118493;28;20230;-76
2022/12/27 06:39:08;;;;;;;2.47;1.90;;;1.20;99.90;;;;;;5118882;28;20237;-75
2022/12/27 06:41:36;;;;;;;3.57;2.17;;;1.10;99.90;;;;;;5119343;28;20491;-79
2022/12/27 06:44:04;;;;;;;3.40;2.00;;;1.10;99.90;;;;;;5119635;28;20278;-76
2022/12/27 06:46:32;;;;;;;4.73;1.90;;;1.00;99.90;;;;;;5120432;28;20262;-77
2022/12/27 06:49:01;;;;;;;2.30;1.80;;;1.00;99.90;;;;;;5129617;28;20215;-76
2022/12/27 06:51:29;;;;;;;5.97;3.50;;;1.00;99.90;;;;;;5136131;28;20527;-77
2022/12/27 06:53:58;;;;;;;9.33;3.57;;;0.90;99.90;;;;;;5118952;28;20463;-76
2022/12/27 06:56:26;;;;;;;6.73;3.43;;;0.90;99.90;;;;;;5119746;28;20226;-77
2022/12/27 06:58:54;;;;;;;3.73;2.40;;;0.90;99.90;;;;;;5119643;28;20731;-78
2022/12/27 07:01:25;;;;;;;3.90;1.90;;;0.90;99.90;;;;;;5120036;28;20217;-77
2022/12/27 07:03:55;;;;;;;4.63;1.80;;;0.90;99.90;;;;;;5120141;28;20183;-76
2022/12/27 07:06:24;;;;;;;3.37;2.00;;;0.80;99.90;;;;;;5120151;28;20214;-77
2022/12/27 07:08:54;;;;;;;6.00;2.23;;;0.90;99.90;;;;;;5119549;28;20464;-77
2022/12/27 07:11:24;;;;;;;3.53;2.10;;;0.80;99.90;;;;;;5120223;28;20461;-77
2022/12/27 07:13:54;;;;;;;4.83;1.93;;;0.80;99.90;;;;;;5119938;28;20214;-76
2022/12/27 07:16:24;;;;;;;4.40;1.90;;;0.80;99.90;;;;;;5120043;28;20532;-77
2022/12/27 07:18:54;;;;;;;3.63;1.80;;;0.90;99.90;;;;;;5120043;28;20508;-76
2022/12/27 07:21:24;;;;;;;4.00;2.20;;;0.90;99.90;;;;;;5120274;28;20257;-76
2022/12/27 07:23:53;;;;;;;4.53;2.30;;;0.80;99.90;;;;;;5119638;28;20218;-76
2022/12/27 07:26:25;;;;;;;5.63;2.93;;;0.90;99.90;;;;;;5119894;28;20198;-77
2022/12/27 07:28:54;;;;;;;4.87;2.80;;;0.90;99.90;;;;;;5120154;28;20207;-77
2022/12/27 07:31:28;;;;;;;6.40;2.97;;;0.90;99.90;;;;;;5120111;28;20199;-77
2022/12/27 07:33:57;;;;;;;4.63;3.23;;;0.90;99.90;;;;;;5119961;28;20335;-76
2022/12/27 07:36:28;;;;;;;4.30;2.93;;;0.90;99.90;;;;;;5135583;28;20262;-77
2022/12/27 07:38:56;;;;;;;4.07;2.50;;;0.90;99.90;;;;;;5119163;28;20294;-79
2022/12/27 07:41:26;;;;;;;5.03;1.80;;;0.90;99.90;;;;;;5117027;28;20434;-75
2022/12/27 07:43:54;;;;;;;8.57;1.63;;;1.00;99.90;;;;;;5116951;28;20206;-79
2022/12/27 07:46:25;;;;;;;5.03;1.87;;;1.00;99.90;;;;;;5118238;28;20199;-78
2022/12/27 07:48:54;;;;;;;4.33;1.87;;;1.00;99.90;;;;;;5136304;28;20274;-78
2022/12/27 07:51:23;;;;;;;3.97;1.80;;;1.10;99.90;;;;;;5138807;28;20233;-78
2022/12/27 07:53:52;;;;;;;3.97;2.20;;;1.10;99.90;;;;;;5136293;28;20455;-79
2022/12/27 07:56:23;;;;;;;4.07;2.03;;;1.20;99.90;;;;;;5121484;28;20497;-78
2022/12/27 07:58:56;;;;;;;6.30;2.30;;;1.20;99.90;;;;;;5118113;28;20203;-76
2022/12/27 08:02:02;;;;;;;5.03;2.20;;;1.40;99.90;;;;;;5118390;28;20235;-77
2022/12/27 08:04:18;;;;;;;3.70;2.30;;;1.30;99.90;;;;;;5118017;28;20215;-77
2022/12/27 08:06:47;;;;;;;2.27;1.80;;;1.40;99.90;;;;;;5118474;28;20203;-76
2022/12/27 08:09:24;;;;;;;5.53;1.87;;;1.60;99.90;;;;;;5118117;28;20271;-77
2022/12/27 08:11:52;;;;;;;1.87;1.40;;;1.90;99.90;;;;;;5136388;28;20218;-79
2022/12/27 08:14:26;;;;;;;3.90;1.53;;;2.30;99.90;;;;;;5138592;28;20233;-76
2022/12/27 08:16:55;;;;;;;5.03;3.40;;;2.90;99.90;;;;;;5139245;28;20206;-77
2022/12/27 08:19:23;;;;;;;3.40;1.60;;;3.40;99.90;;;;;;5139393;28;20182;-77
2022/12/27 08:21:52;;;;;;;2.97;1.30;;;4.00;99.90;;;;;;5136516;28;20255;-80
2022/12/27 08:24:27;;;;;;;2.07;1.30;;;4.60;99.90;;;;;;5136823;28;20262;-78
2022/12/27 08:26:57;;;;;;;3.77;2.57;;;5.30;99.90;;;;;;5133788;28;20202;-79
2022/12/27 08:29:27;;;;;;;4.23;1.93;;;5.80;99.90;;;;;;5132420;28;20228;-79
2022/12/27 08:32:00;;;;;;;4.00;1.40;;;6.80;99.90;;;;;;5132188;28;20222;-79
2022/12/27 08:34:28;;;;;;;1.43;1.20;;;7.30;99.90;;;;;;5132708;28;20239;-77
2022/12/27 08:36:58;;;;;;;2.10;1.47;;;7.40;99.90;;;;;;5134340;28;20214;-78
2022/12/27 08:39:31;;;;;;;2.57;1.33;;;7.80;99.90;;;;;;5133801;28;20201;-79
2022/12/27 08:42:03;;;;;;;2.93;1.70;;;8.30;99.90;;;;;;5135148;28;20213;-77
2022/12/27 08:44:32;;;;;;;2.63;1.40;;;8.60;99.90;;;;;;5136512;28;20214;-79
2022/12/27 08:47:01;;;;;;;3.50;1.50;;;9.10;99.90;;;;;;5133852;28;20210;-77
2022/12/27 08:49:29;;;;;;;2.10;1.10;;;9.40;99.90;;;;;;5116276;28;20247;-76
2022/12/27 08:51:57;;;;;;;3.13;1.40;;;9.80;99.90;;;;;;5115519;28;20206;-77
2022/12/27 08:54:25;;;;;;;1.97;1.20;;;10.00;99.90;;;;;;5112804;28;20210;-79
2022/12/27 08:56:53;;;;;;;2.37;1.10;;;9.70;99.90;;;;;;5111997;28;20203;-77
2022/12/27 08:59:25;;;;;;;3.37;1.30;;;9.50;99.90;;;;;;5113285;28;20194;-78
2022/12/27 09:01:55;;;;;;;3.80;1.30;;;8.90;99.90;;;;;;5110799;28;20254;-77
2022/12/27 09:04:23;;;;;;;2.63;1.30;;;8.30;99.90;;;;;;5112722;28;20240;-78
2022/12/27 09:06:51;;;;;;;1.63;1.17;;;7.70;99.90;;;;;;5116551;28;20241;-77
2022/12/27 09:09:20;;;;;;;4.40;1.33;;;7.10;99.90;;;;;;5117860;28;20226;-77
2022/12/27 09:11:48;;;;;;;3.10;1.13;;;6.60;99.90;;;;;;5117924;28;20295;-78
2022/12/27 09:14:16;;;;;;;2.40;1.30;;;6.30;99.90;;;;;;5123385;28;20197;-77
2022/12/27 09:16:44;;;;;;;1.80;1.30;;;6.00;99.90;;;;;;5138142;28;20209;-78
2022/12/27 09:19:13;;;;;;;2.50;1.33;;;5.70;99.90;;;;;;5138030;28;20265;-77
2022/12/27 09:21:42;;;;;;;2.10;1.40;;;5.40;99.90;;;;;;5137232;28;20220;-75
2022/12/27 09:24:11;;;;;;;3.10;1.40;;;5.30;99.90;;;;;;5107869;28;20696;-79
2022/12/27 09:26:40;;;;;;;3.70;2.17;;;5.00;99.90;;;;;;5099526;28;20238;-76
2022/12/27 09:29:12;;;;;;;2.67;1.40;;;4.90;99.90;;;;;;5099426;28;20213;-75
2022/12/27 09:31:40;;;;;;;2.80;1.70;;;4.80;99.90;;;;;;5098812;28;20741;-75
2022/12/27 09:34:09;;;;;;;4.13;1.63;;;4.70;99.90;;;;;;5099556;28;20249;-76
2022/12/27 09:36:40;;;;;;;3.23;1.70;;;4.70;99.90;;;;;;5099266;28;20253;-77
2022/12/27 09:39:12;;;;;;;2.73;1.50;;;4.70;99.90;;;;;;5098103;28;20298;-77
2022/12/27 09:41:53;;;;;;;7.00;1.80;;;4.70;99.90;;;;;;5097755;28;20233;-75
2022/12/27 09:44:49;;;;;;;4.00;1.80;;;4.60;99.90;;;;;;5105415;28;20213;-75
2022/12/27 09:47:23;;;;;;;3.33;1.90;;;4.60;99.90;;;;;;5118163;28;20201;-76
2022/12/27 09:49:55;;;;;;;4.87;2.00;;;4.70;99.90;;;;;;5116604;28;20292;-75
2022/12/27 09:52:29;;;;;;;2.93;1.90;;;4.80;99.90;;;;;;5118159;28;20565;-77
2022/12/27 09:55:02;;;;;;;3.30;2.07;;;4.70;99.90;;;;;;5111740;28;20195;-75
2022/12/27 09:57:37;;;;;;;5.60;2.20;;;4.70;99.90;;;;;;5095804;28;20198;-75
2022/12/27 10:00:14;;;;;;;4.13;1.90;;;4.80;99.90;;;;;;5095020;28;20283;-79
2022/12/27 10:02:43;;;;;;;7.67;2.10;;;4.80;99.90;;;;;;5095782;28;20758;-77
2022/12/27 10:05:20;;;;;;;3.73;2.40;;;4.90;99.90;;;;;;5095045;28;20206;-75
2022/12/27 10:08:03;;;;;;;4.70;2.47;;;5.00;99.90;;;;;;5100772;28;20668;-75
2022/12/27 10:10:41;;;;;;;3.90;2.00;;;5.00;99.90;;;;;;5099882;28;20246;-74
2022/12/27 10:13:28;;;;;;;3.37;1.90;;;5.10;99.90;;;;;;5098176;28;20206;-76
2022/12/27 10:16:03;;;;;;;3.50;1.80;;;5.20;99.90;;;;;;5098150;28;20664;-76
2022/12/27 10:18:42;;;;;;;2.90;1.70;;;5.20;99.90;;;;;;5097725;28;20198;-78
2022/12/27 10:21:19;;;;;;;2.10;1.50;;;5.50;99.90;;;;;;5097858;28;20230;-76
2022/12/27 10:23:54;;;;;;;2.77;1.70;;;5.80;99.90;;;;;;5097806;28;20242;-78
2022/12/27 10:26:22;;;;;;;4.60;2.03;;;6.50;99.90;;;;;;5098240;28;20186;-77
2022/12/27 10:28:56;;;;;;;5.30;1.80;;;7.40;99.90;;;;;;5097638;28;20218;-77
2022/12/27 10:31:25;;;;;;;2.80;1.73;;;8.20;99.90;;;;;;5098344;28;20186;-79
2022/12/27 10:33:54;;;;;;;3.23;1.60;;;9.70;99.90;;;;;;5097154;28;20211;-78
2022/12/27 10:36:25;;;;;;;4.03;1.40;;;10.50;99.90;;;;;;5099442;28;20211;-79
2022/12/27 10:38:56;;;;;;;2.03;1.40;;;10.90;99.90;;;;;;5099863;28;20210;-78
2022/12/27 10:41:32;;;;;;;1.60;1.10;;;11.80;99.90;;;;;;5109501;28;20225;-78
2022/12/27 10:44:01;;;;;;;1.83;1.40;;;12.10;99.90;;;;;;5119285;28;20342;-79
2022/12/27 10:46:31;;;;;;;3.33;1.17;;;12.90;99.90;;;;;;5114541;28;20221;-79
2022/12/27 10:49:07;;;;;;;3.97;1.30;;;12.40;99.90;;;;;;5121292;28;20227;-80
2022/12/27 10:51:49;;;;;;;2.00;1.10;;;12.10;99.80;;;;;;5099517;28;20210;-79
2022/12/27 10:54:22;;;;;;;1.50;0.90;;;11.90;99.90;;;;;;5099407;28;20298;-78
2022/12/27 10:56:50;;;;;;;2.27;1.30;;;12.80;97.30;;;;;;5100968;28;20299;-79
2022/12/27 10:59:21;;;;;;;2.00;0.90;;;14.10;95.00;;;;;;5114110;28;20320;-79
2022/12/27 11:02:07;;;;;;;2.07;1.20;;;13.90;92.10;;;;;;5123336;28;20222;-80
2022/12/27 11:04:36;;;;;;;2.00;1.20;;;13.50;92.00;;;;;;5109894;28;20231;-81
2022/12/27 11:07:22;;;;;;;2.10;1.50;;;14.60;91.10;;;;;;5098642;28;20211;-80
2022/12/27 11:10:07;;;;;;;2.00;1.50;;;14.20;90.70;;;;;;5105220;28;20218;-80
2022/12/27 11:12:35;;;;;;;2.35;1.00;;;15.10;90.30;;;;;;5112361;28;20211;-82
2022/12/27 11:15:06;;;;;;;2.57;0.80;;;14.80;86.30;;;;;;5116422;28;20282;-80
2022/12/27 11:17:38;;;;;;;2.23;0.90;;;14.80;87.60;;;;;;5121079;28;20225;-81
2022/12/27 11:20:22;;;;;;;1.27;0.87;;;14.10;88.90;;;;;;5118257;28;20258;-81
2022/12/27 11:22:53;;;;;;;2.90;1.00;;;13.10;87.70;;;;;;5118170;28;20220;-81
2022/12/27 11:25:23;;;;;;;3.00;1.40;;;13.40;90.00;;;;;;5105466;28;20206;-80
2022/12/27 11:27:56;;;;;;;3.00;1.57;;;13.50;90.60;;;;;;5098542;28;20263;-80
2022/12/27 11:30:28;;;;;;;2.60;1.03;;;13.60;89.70;;;;;;5099791;28;20578;-81
2022/12/27 11:33:00;;;;;;;1.93;0.70;;;13.90;88.00;;;;;;5102450;28;20243;-82
2022/12/27 11:35:37;;;;;;;1.47;0.80;;;12.30;88.20;;;;;;5126295;28;20224;-79
2022/12/27 11:38:05;;;;;;;2.13;0.90;;;11.60;91.10;;;;;;5122707;28;20190;-79
2022/12/27 11:40:35;;;;;;;1.23;1.10;;;11.50;92.00;;;;;;5114953;28;20202;-79
2022/12/27 11:43:08;;;;;;;2.13;1.50;;;11.20;92.20;;;;;;5106580;28;20265;-80
2022/12/27 11:45:40;;;;;;;2.77;1.03;;;11.20;93.10;;;;;;5118383;28;20292;-78
2022/12/27 11:48:20;;;;;;;2.37;1.43;;;10.60;92.70;;;;;;5116747;28;20222;-79
2022/12/27 11:51:28;;;;;;;2.53;1.50;;;10.30;94.40;;;;;;5112737;28;20226;-77
2022/12/27 11:54:23;;;;;;;2.37;1.13;;;9.60;96.10;;;;;;5099866;28;20572;-79
2022/12/27 11:57:00;;;;;;;2.23;0.97;;;9.90;96.10;;;;;;5097881;28;20644;-79
2022/12/27 11:59:42;;;;;;;1.63;1.00;;;9.30;97.90;;;;;;5104186;28;20203;-77
2022/12/27 12:02:36;;;;;;;1.57;0.70;;;8.50;99.60;;;;;;5101259;28;20715;-77
2022/12/27 12:05:45;;;;;;;2.20;1.00;;;8.70;98.80;;;;;;5099646;28;20230;-77
2022/12/27 12:08:46;;;;;;;2.73;0.80;;;8.40;99.00;;;;;;5076642;28;20230;-78
2022/12/27 12:11:24;;;;;;;2.30;1.10;;;8.00;99.90;;;;;;5083699;28;20207;-79
2022/12/27 12:14:21;;;;;;;1.50;0.97;;;8.00;99.90;;;;;;5098711;28;20237;-77
2022/12/27 12:17:07;;;;;;;1.20;0.70;;;8.00;99.90;;;;;;5096608;28;20239;-77
2022/12/27 12:20:03;;;;;;;2.50;1.13;;;8.00;99.90;;;;;;5096547;28;20197;-78
2022/12/27 12:22:58;;;;;;;1.83;0.83;;;7.90;99.90;;;;;;5099268;28;20535;-77
2022/12/27 12:25:47;;;;;;;1.63;1.00;;;7.90;99.90;;;;;;5099166;28;20207;-77
2022/12/27 12:28:40;;;;;;;2.70;0.87;;;7.70;99.90;;;;;;5099581;28;20215;-77
2022/12/27 12:31:49;;;;;;;1.53;0.90;;;7.70;99.90;;;;;;5101835;28;20207;-77
2022/12/27 12:34:36;;;;;;;2.23;1.00;;;7.30;99.90;;;;;;5098505;28;20653;-78
2022/12/27 12:37:43;;;;;;;1.83;1.00;;;7.30;99.90;;;;;;5101671;28;20553;-76
2022/12/27 12:40:34;;;;;;;2.37;1.03;;;7.20;99.90;;;;;;5103214;28;20210;-78
2022/12/27 12:43:19;;;;;;;2.20;1.13;;;7.10;99.90;;;;;;5096844;28;20222;-77
2022/12/27 12:46:01;;;;;;;3.20;2.03;;;6.90;99.90;;;;;;5097637;28;20286;-78
2022/12/27 12:49:03;;;;;;;4.10;1.90;;;6.80;99.90;;;;;;5095671;28;20217;-77
2022/12/27 12:51:56;;;;;;;2.87;1.10;;;6.70;99.90;;;;;;5084365;28;20249;-78
2022/12/27 12:54:45;;;;;;;3.90;1.23;;;6.70;99.90;;;;;;5098253;28;20206;-76
2022/12/27 12:57:28;;;;;;;3.30;1.07;;;6.60;99.90;;;;;;5097968;28;20214;-76
2022/12/27 13:00:23;;;;;;;1.20;0.83;;;6.50;99.90;;;;;;5095786;28;20210;-76
2022/12/27 13:03:17;;;;;;;3.07;1.00;;;6.60;99.90;;;;;;5098020;28;20217;-76
2022/12/27 13:05:51;;;;;;;1.20;0.70;;;6.40;99.90;;;;;;5097309;28;20187;-77
2022/12/27 13:08:25;;;;;;;2.97;1.10;;;6.30;99.90;;;;;;5099005;28;20222;-76
2022/12/27 13:11:22;;;;;;;1.77;1.27;;;6.20;99.90;;;;;;5094356;28;20210;-77
2022/12/27 13:14:06;;;;;;;3.90;1.43;;;6.10;99.90;;;;;;5096035;28;20260;-77
2022/12/27 13:16:46;;;;;;;3.10;1.77;;;6.10;99.90;;;;;;5097177;28;20278;-78
2022/12/27 13:19:44;;;;;;;2.00;1.50;;;6.00;99.90;;;;;;5096978;28;20603;-77
2022/12/27 13:22:20;;;;;;;2.77;1.80;;;6.00;99.90;;;;;;5095143;28;20321;-76
2022/12/27 13:25:08;;;;;;;3.07;1.60;;;6.00;99.90;;;;;;5098806;28;20205;-77
2022/12/27 13:27:45;;;;;;;4.17;2.23;;;5.90;99.90;;;;;;5116276;28;20535;-75
2022/12/27 13:30:20;;;;;;;2.47;1.90;;;6.00;99.90;;;;;;5116217;28;20190;-76
2022/12/27 13:33:08;;;;;;;4.80;1.90;;;6.00;99.90;;;;;;5116425;28;20308;-78
2022/12/27 13:35:54;;;;;;;3.37;1.77;;;6.10;99.90;;;;;;5101502;28;20235;-77
2022/12/27 13:38:37;;;;;;;4.07;2.23;;;6.10;99.90;;;;;;5097961;28;20197;-76
2022/12/27 13:41:21;;;;;;;5.17;2.53;;;6.20;99.90;;;;;;5102448;28;20298;-78
2022/12/27 13:44:23;;;;;;;5.63;2.67;;;6.00;99.90;;;;;;5094377;28;20225;-77
2022/12/27 13:47:23;;;;;;;4.57;2.40;;;6.10;99.90;;;;;;5103287;28;20203;-77
2022/12/27 13:50:15;;;;;;;4.40;2.40;;;6.20;99.90;;;;;;5114125;28;20210;-78
2022/12/27 13:52:58;;;;;;;2.73;1.70;;;6.20;99.90;;;;;;5114106;28;20292;-77
2022/12/27 13:55:47;;;;;;;3.00;1.57;;;6.20;99.90;;;;;;5099144;28;20206;-78
2022/12/27 13:58:47;;;;;;;2.17;1.63;;;6.20;99.90;;;;;;5106506;28;20346;-77
2022/12/27 14:01:31;;;;;;;2.50;1.57;;;6.30;99.90;;;;;;5109252;28;20183;-77
2022/12/27 14:04:14;;;;;;;4.80;1.70;;;6.20;99.90;;;;;;5107986;28;20602;-76
2022/12/27 14:07:06;;;;;;;2.97;1.47;;;6.20;99.90;;;;;;5104838;28;20257;-76
2022/12/27 14:10:11;;;;;;;3.13;1.90;;;6.20;99.90;;;;;;5093817;28;20599;-76
2022/12/27 14:12:55;;;;;;;2.00;1.40;;;6.20;99.90;;;;;;5070575;28;20203;-77
2022/12/27 14:15:31;;;;;;;2.33;1.43;;;6.20;99.90;;;;;;5091921;28;20206;-76
2022/12/27 14:18:22;;;;;;;3.53;1.37;;;6.20;99.90;;;;;;5093682;28;20577;-76
2022/12/27 14:20:59;;;;;;;2.27;1.50;;;6.10;99.90;;;;;;5093313;28;20270;-76
2022/12/27 14:23:41;;;;;;;1.70;1.00;;;6.20;99.90;;;;;;5109310;28;20218;-76
2022/12/27 14:26:50;;;;;;;3.17;1.40;;;6.10;99.90;;;;;;5113761;28;20628;-77
2022/12/27 14:29:55;;;;;;;2.70;1.40;;;6.10;99.90;;;;;;5112292;28;20210;-76
2022/12/27 14:33:03;;;;;;;1.77;1.27;;;6.10;99.90;;;;;;5068981;28;20723;-76
2022/12/27 14:36:05;;;;;;;3.13;1.30;;;6.00;99.90;;;;;;5093033;28;20209;-76
2022/12/27 14:39:19;;;;;;;3.50;1.27;;;6.00;99.90;;;;;;5108920;28;20289;-77
2022/12/27 14:42:24;;;;;;;2.80;1.63;;;5.90;99.90;;;;;;5069397;28;20680;-77
2022/12/27 14:45:43;;;;;;;3.53;2.00;;;5.80;99.90;;;;;;5092699;28;20214;-77
2022/12/27 14:48:38;;;;;;;4.17;1.80;;;5.70;99.90;;;;;;5008954;28;20246;-77
2022/12/27 14:51:51;;;;;;;3.57;1.47;;;5.60;99.90;;;;;;5089977;28;20215;-78
2022/12/27 14:55:13;;;;;;;2.73;1.40;;;5.50;99.90;;;;;;5096600;28;20213;-77
2022/12/27 14:57:51;;;;;;;2.50;1.50;;;5.40;99.90;;;;;;5099384;28;20183;-76
2022/12/27 15:00:27;;;;;;;3.27;1.60;;;5.30;99.90;;;;;;5108200;28;20270;-77
2022/12/27 15:03:19;;;;;;;4.77;2.17;;;5.20;99.90;;;;;;5097523;28;20222;-76
2022/12/27 15:06:01;;;;;;;5.10;3.27;;;5.00;99.90;;;;;;5096600;28;20214;-77
2022/12/27 15:08:42;;;;;;;3.43;2.40;;;4.90;99.90;;;;;;5097476;28;20191;-77
2022/12/27 15:11:26;;;;;;;4.90;2.70;;;4.90;99.90;;;;;;5098191;28;20565;-78
2022/12/27 15:14:11;;;;;;;3.67;1.83;;;4.80;99.90;;;;;;5098056;28;20290;-79
2022/12/27 15:16:54;;;;;;;5.20;2.20;;;4.70;99.90;;;;;;5095511;28;20210;-77